VTSS/HDY METAR and TAF weather

Enter ICAO airport designator
Station Type Date Time Source
VTSS METAR 2021/01/17 18:30 UTC NOAA

VTSS 171830Z 06002KT 9999 FEW020 SCT100 24/24 Q1012 NOSIG


Station Type Date Time Source
VTSS Decoded METAR 2021/01/17 18:30 UTC NOAA

Hat Yai, Thailand (VTSS) 06-55N 100-26E 35M
Jan 17, 2021 - 01:30 PM EST / 2021.01.17 1830 UTC
Wind: from the ENE (060 degrees) at 2 MPH (2 KT):0
Visibility: greater than 7 mile(s):0
Sky conditions: partly cloudy
Temperature: 75 F (24 C)
Dew Point: 75 F (24 C)
Relative Humidity: 100%
Pressure (altimeter): 29.88 in. Hg (1012 hPa)
ob: VTSS 171830Z 06002KT 9999 FEW020 SCT100 24/24 Q1012 NOSIG
cycle: 18

Station Type Date Time Source
VTSS TAF 2021/01/17 18:36 UTC NOAA

TAF VTSS 171700Z 1718/1818 09003KT 9999 FEW020 BKN100 PROB40
TEMPO 1722/1804 4000 RA SCT020 BKN100
BECMG 1804/1806 07013KT
BECMG 1814/1816 05003KT

Example: see airport list